Seaway II — ZMR3466 — position and weather

sailwx.info

Track history (hours):
 
Tides and Currents Weather Stations Pressure Air Temp Water Temp Dewpoint Dewpoint Depression Visibility Wind Speed Wind Dir Waves Ship Positions

Seaway II

Last reported at 2014-Oct-30 15:33 UTC. Time now 2014-Oct-30 16:08 UTC.
Position S 36°53' E 174°54'.

Length 37 m.

Type: Passenger vessel. MMSI: 512001026.

Date/timePositionNaut miles runAvg speedWind from/ knotsBaromVisibWave heightAir tempDewpointWater temp
2014-Oct-30 15:33S 36°53' E 174°54'0 0.0
2014-Oct-30 14:22S 36°53' E 174°54'0 0.0
2014-Oct-30 13:30S 36°53' E 174°54'0 0.0
2014-Oct-30 12:30S 36°53' E 174°54'0 0.0
2014-Oct-30 11:33S 36°53' E 174°54'0 0.0
2014-Oct-30 10:33S 36°53' E 174°54'0 0.0
2014-Oct-30 09:31S 36°53' E 174°54'0 0.0
2014-Oct-30 08:28S 36°53' E 174°54'0 0.0
2014-Oct-30 07:28S 36°53' E 174°54'0 0.0
2014-Oct-30 06:22S 36°53' E 174°54'3 3.2
2014-Oct-30 05:27S 36°50' E 174°55'2 2.4
2014-Oct-30 04:33S 36°50' E 174°58'4 3.8
2014-Oct-30 03:26S 36°53' E 174°54'0 0.0
2014-Oct-30 02:32S 36°53' E 174°54'0 0.0
2014-Oct-30 01:32S 36°53' E 174°54'0 0.0
2014-Oct-30 00:31S 36°53' E 174°54'0 0.0
2014-Oct-29 23:31S 36°53' E 174°54'0 0.0
2014-Oct-29 22:31S 36°53' E 174°54'0 0.0
2014-Oct-29 21:31S 36°53' E 174°54'0 0.0
2014-Oct-29 20:28S 36°53' E 174°54'6 6.4
2014-Oct-29 19:33S 36°49' E 174°60'5 5.3
2014-Oct-29 18:33S 36°51' E 174°54'2 2.0
2014-Oct-29 17:32S 36°49' E 174°55'1 0.7
2014-Oct-29 16:33S 36°49' E 174°56'4 3.5
2014-Oct-29 15:31S 36°53' E 174°54'0 0.0
2014-Oct-29 14:31S 36°53' E 174°54'0 0.0
2014-Oct-29 13:33S 36°53' E 174°54'0 0.0
2014-Oct-29 12:30S 36°53' E 174°54'0 0.0
2014-Oct-29 11:33S 36°53' E 174°54'0 0.0
2014-Oct-29 10:33S 36°53' E 174°54'0 0.0
2014-Oct-29 09:33S 36°53' E 174°54'0 0.0
2014-Oct-29 08:33S 36°53' E 174°54'0 0.0
2014-Oct-29 07:33S 36°53' E 174°54'0 0.0
2014-Oct-29 06:33S 36°53' E 174°54'2 2.0
2014-Oct-29 05:33S 36°51' E 174°54'4 3.6
2014-Oct-29 04:33S 36°50' E 174°58'4 4.4
2014-Oct-29 03:33S 36°53' E 174°54'0 0.0
2014-Oct-29 01:33S 36°53' E 174°54'4 2.2
2014-Oct-28 23:33S 36°50' E 174°58'4 4.4
2014-Oct-28 22:32S 36°53' E 174°54'2 1.1
2014-Oct-28 20:32S 36°51' E 174°54'1 0.4
2014-Oct-28 18:31S 36°51' E 174°54'4 3.9
2014-Oct-28 17:31S 36°50' E 174°58'3 3.1
2014-Oct-28 16:33S 36°49' E 174°54'4 3.5
2014-Oct-28 15:32S 36°53' E 174°54'0 0.0
2014-Oct-28 14:32S 36°53' E 174°54'0 0.0
2014-Oct-28 13:29S 36°53' E 174°54'0 0.0
2014-Oct-28 12:32S 36°53' E 174°54'0 0.0
2014-Oct-28 11:32S 36°53' E 174°54'0 0.0
2014-Oct-28 10:32S 36°53' E 174°54'0 0.0
2014-Oct-28 09:32S 36°53' E 174°54'0 0.0
2014-Oct-28 08:32S 36°53' E 174°54'0 0.0
2014-Oct-28 07:32S 36°53' E 174°54'0 0.0
2014-Oct-28 06:29S 36°53' E 174°54'2 2.2
2014-Oct-28 05:33S 36°51' E 174°54'3 3.0
2014-Oct-28 04:33S 36°50' E 174°57'4 3.6
2014-Oct-28 03:31S 36°53' E 174°54'0 0.0
2014-Oct-28 00:31S 36°53' E 174°54'0 0.0
2014-Oct-27 23:17S 36°53' E 174°54'0 0.2
2014-Oct-27 22:26S 36°53' E 174°54'0 0.2
2014-Oct-27 21:32S 36°53' E 174°54'0 0.0
2014-Oct-27 20:29S 36°53' E 174°54'6 5.3
2014-Oct-27 19:25S 36°49' E 174°59'4 5.0
2014-Oct-27 18:33S 36°50' E 174°54'2 2.5
2014-Oct-27 17:33S 36°50' E 174°57'3 2.6
2014-Oct-27 16:33S 36°49' E 174°54'4 3.4
2014-Oct-27 15:31S 36°53' E 174°54'0 0.0
2014-Oct-27 14:31S 36°53' E 174°54'0 0.0
2014-Oct-27 13:31S 36°53' E 174°54'0 0.0
2014-Oct-27 12:31S 36°53' E 174°54'0 0.0
2014-Oct-27 11:31S 36°53' E 174°54'0 0.0
2014-Oct-27 10:31S 36°53' E 174°54'0 0.0
2014-Oct-27 09:31S 36°53' E 174°54'0 0.0
2014-Oct-27 08:31S 36°53' E 174°54'4 0.7
2014-Oct-27 03:33S 36°49' E 174°54'4 3.1
2014-Oct-27 02:15S 36°50' E 174°49'5 2.9
2014-Oct-27 00:33S 36°49' E 174°56'5 4.1
2014-Oct-26 23:22S 36°50' E 174°49'10 5.1
2014-Oct-26 21:31S 36°49' E 175°01'13 1.0
2014-Oct-26 08:05S 36°50' E 174°45'7 8.7
2014-Oct-26 07:16S 36°53' E 174°54'0 0.1
2014-Oct-26 06:31S 36°53' E 174°54'4 3.6
2014-Oct-26 05:18S 36°50' E 174°50'3 1.8
2014-Oct-26 03:33S 36°49' E 174°54'3 2.5
2014-Oct-26 02:17S 36°50' E 174°50'4 2.1
2014-Oct-26 00:33S 36°49' E 174°54'7 6.3
2014-Oct-25 23:29S 36°50' E 174°46'12 6.2
2014-Oct-25 21:28S 36°49' E 175°01'13 0.8
2014-Oct-25 05:26S 36°50' E 174°45'7 3.5
2014-Oct-25 03:33S 36°49' E 174°54'6 5.9
2014-Oct-25 02:28S 36°50' E 174°46'7 3.6
2014-Oct-25 00:33S 36°49' E 174°54'7 6.1
2014-Oct-24 23:25S 36°50' E 174°46'13 6.5
2014-Oct-24 21:28S 36°49' E 175°01'13 5.5
2014-Oct-24 19:08S 36°50' E 174°45'0 0.0
2014-Oct-24 09:04S 36°50' E 174°45'1 2.2
2014-Oct-24 08:32S 36°50' E 174°47'1211.2
2014-Oct-24 07:29S 36°49' E 175°01'1310.6
2014-Oct-24 06:16S 36°50' E 174°45'7 9.8
2014-Oct-24 05:32S 36°49' E 174°54'1 1.5
2014-Oct-24 04:33S 36°50' E 174°56'0 0.2
2014-Oct-24 03:29S 36°50' E 174°55'1 0.7
2014-Oct-24 02:33S 36°50' E 174°55'2 1.8
2014-Oct-24 01:33S 36°50' E 174°53'4 3.6
2014-Oct-24 00:33S 36°50' E 174°57'3 3.1
2014-Oct-23 23:33S 36°51' E 174°54'3 3.4
2014-Oct-23 22:33S 36°50' E 174°58'4 4.0
2014-Oct-23 21:28S 36°53' E 174°54'0 0.0
2014-Oct-23 20:27S 36°53' E 174°54'1 1.5
2014-Oct-23 19:33S 36°51' E 174°54'4 4.3
2014-Oct-23 18:33S 36°50' E 174°59'4 4.2
2014-Oct-23 17:33S 36°51' E 174°53'4 4.2
2014-Oct-23 16:33S 36°50' E 174°58'5 3.7
2014-Oct-23 15:16S 36°53' E 174°54'0 0.0
2014-Oct-23 14:28S 36°53' E 174°54'0 0.0
2014-Oct-23 13:31S 36°53' E 174°54'0 0.0
2014-Oct-23 12:32S 36°53' E 174°54'0 0.0
2014-Oct-23 11:31S 36°53' E 174°54'0 0.0
2014-Oct-23 10:32S 36°53' E 174°54'0 0.0
2014-Oct-23 09:32S 36°53' E 174°54'0 0.0
2014-Oct-23 08:30S 36°53' E 174°54'0 0.1
2014-Oct-23 07:33S 36°53' E 174°54'0 0.0
2014-Oct-23 06:30S 36°53' E 174°54'3 3.1
2014-Oct-23 05:27S 36°50' E 174°56'1 1.2
2014-Oct-23 04:33S 36°50' E 174°57'4 3.9
2014-Oct-23 03:33S 36°53' E 174°54'0 0.0
2014-Oct-23 02:30S 36°53' E 174°54'0 0.0
2014-Oct-23 01:33S 36°53' E 174°54'4 2.2
2014-Oct-22 23:33S 36°50' E 174°58'4 2.1
2014-Oct-22 21:29S 36°53' E 174°54'0 0.0
2014-Oct-22 20:32S 36°53' E 174°54'2 1.8
2014-Oct-22 19:33S 36°51' E 174°53'4 4.5
2014-Oct-22 18:33S 36°50' E 174°59'4 4.4
2014-Oct-22 17:33S 36°51' E 174°54'4 4.0
2014-Oct-22 16:33S 36°50' E 174°58'5 4.6
2014-Oct-22 15:32S 36°53' E 174°54'0 0.0
2014-Oct-22 14:29S 36°53' E 174°54'0 0.1
2014-Oct-22 13:31S 36°53' E 174°54'0 0.0
2014-Oct-22 12:05S 36°53' E 174°54'0 0.1
2014-Oct-22 11:28S 36°53' E 174°54'0 0.1
2014-Oct-22 10:31S 36°53' E 174°54'0 0.0
2014-Oct-22 09:29S 36°53' E 174°54'0 0.0
2014-Oct-22 08:29S 36°53' E 174°54'0 0.0
2014-Oct-22 07:32S 36°53' E 174°54'0 0.0
2014-Oct-22 06:32S 36°53' E 174°54'1 1.3
2014-Oct-22 05:33S 36°52' E 174°54'4 4.4
2014-Oct-22 04:33S 36°50' E 174°59'4 4.3
2014-Oct-22 03:32S 36°51' E 174°53'4 3.9
2014-Oct-22 02:33S 36°50' E 174°58'4 4.1
2014-Oct-22 01:28S 36°53' E 174°54'4 2.2
2014-Oct-21 23:33S 36°50' E 174°58'4 4.2
2014-Oct-21 22:33S 36°53' E 174°54'3 1.4
2014-Oct-21 20:33S 36°50' E 174°56'1 0.8
2014-Oct-21 19:24S 36°50' E 174°56'1 0.9
2014-Oct-21 18:33S 36°50' E 174°57'3 2.8
2014-Oct-21 17:32S 36°51' E 174°54'3 2.7
2014-Oct-21 16:33S 36°50' E 174°57'4 3.7
2014-Oct-21 15:31S 36°53' E 174°54'0 0.0
2014-Oct-21 10:33S 36°53' E 174°54'0 0.0
2014-Oct-21 09:33S 36°53' E 174°54'0 0.0
2014-Oct-21 08:33S 36°53' E 174°54'0 0.0
2014-Oct-21 07:33S 36°53' E 174°54'0 0.0
2014-Oct-21 06:33S 36°53' E 174°54'2 1.6
2014-Oct-21 05:33S 36°51' E 174°53'5 4.6
2014-Oct-21 04:33S 36°50' E 174°59'5 4.7
2014-Oct-21 03:28S 36°53' E 174°54'0 0.0
2014-Oct-21 02:28S 36°53' E 174°54'0 0.4
2014-Oct-21 01:16S 36°52' E 174°54'3 1.7
2014-Oct-20 23:33S 36°50' E 174°56'3 2.0
2014-Oct-20 22:13S 36°52' E 174°54'2 1.2
2014-Oct-20 20:30S 36°50' E 174°56'2 1.8
2014-Oct-20 19:33S 36°51' E 174°54'3 3.0
2014-Oct-20 18:33S 36°50' E 174°57'1 0.4
2014-Oct-20 16:33S 36°50' E 174°58'  
Track history (hours):
 
Tides and Currents Weather Stations Pressure Air Temp Water Temp Dewpoint Dewpoint Depression Visibility Wind Speed Wind Dir Waves Ship Positions

Seaway II

Last reported at 2014-Oct-30 15:33 UTC. Time now 2014-Oct-30 16:08 UTC.
Position S 36°53' E 174°54'.

Length 37 m.

Type: Passenger vessel. MMSI: 512001026.

Date/timePositionNaut miles runAvg speedWind from/ knotsBaromVisibWave heightAir tempDewpointWater temp
2014-Oct-30 15:33S 36°53' E 174°54'0 0.0
2014-Oct-30 14:22S 36°53' E 174°54'0 0.0
2014-Oct-30 13:30S 36°53' E 174°54'0 0.0
2014-Oct-30 12:30S 36°53' E 174°54'0 0.0
2014-Oct-30 11:33S 36°53' E 174°54'0 0.0
2014-Oct-30 10:33S 36°53' E 174°54'0 0.0
2014-Oct-30 09:31S 36°53' E 174°54'0 0.0
2014-Oct-30 08:28S 36°53' E 174°54'0 0.0
2014-Oct-30 07:28S 36°53' E 174°54'0 0.0
2014-Oct-30 06:22S 36°53' E 174°54'3 3.2
2014-Oct-30 05:27S 36°50' E 174°55'2 2.4
2014-Oct-30 04:33S 36°50' E 174°58'4 3.8
2014-Oct-30 03:26S 36°53' E 174°54'0 0.0
2014-Oct-30 02:32S 36°53' E 174°54'0 0.0
2014-Oct-30 01:32S 36°53' E 174°54'0 0.0
2014-Oct-30 00:31S 36°53' E 174°54'0 0.0
2014-Oct-29 23:31S 36°53' E 174°54'0 0.0
2014-Oct-29 22:31S 36°53' E 174°54'0 0.0
2014-Oct-29 21:31S 36°53' E 174°54'0 0.0
2014-Oct-29 20:28S 36°53' E 174°54'6 6.4
2014-Oct-29 19:33S 36°49' E 174°60'5 5.3
2014-Oct-29 18:33S 36°51' E 174°54'2 2.0
2014-Oct-29 17:32S 36°49' E 174°55'1 0.7
2014-Oct-29 16:33S 36°49' E 174°56'4 3.5
2014-Oct-29 15:31S 36°53' E 174°54'0 0.0
2014-Oct-29 14:31S 36°53' E 174°54'0 0.0
2014-Oct-29 13:33S 36°53' E 174°54'0 0.0
2014-Oct-29 12:30S 36°53' E 174°54'0 0.0
2014-Oct-29 11:33S 36°53' E 174°54'0 0.0
2014-Oct-29 10:33S 36°53' E 174°54'0 0.0
2014-Oct-29 09:33S 36°53' E 174°54'0 0.0
2014-Oct-29 08:33S 36°53' E 174°54'0 0.0
2014-Oct-29 07:33S 36°53' E 174°54'0 0.0
2014-Oct-29 06:33S 36°53' E 174°54'2 2.0
2014-Oct-29 05:33S 36°51' E 174°54'4 3.6
2014-Oct-29 04:33S 36°50' E 174°58'4 4.4
2014-Oct-29 03:33S 36°53' E 174°54'0 0.0
2014-Oct-29 01:33S 36°53' E 174°54'4 2.2
2014-Oct-28 23:33S 36°50' E 174°58'4 4.4
2014-Oct-28 22:32S 36°53' E 174°54'2 1.1
2014-Oct-28 20:32S 36°51' E 174°54'1 0.4
2014-Oct-28 18:31S 36°51' E 174°54'4 3.9
2014-Oct-28 17:31S 36°50' E 174°58'3 3.1
2014-Oct-28 16:33S 36°49' E 174°54'4 3.5
2014-Oct-28 15:32S 36°53' E 174°54'0 0.0
2014-Oct-28 14:32S 36°53' E 174°54'0 0.0
2014-Oct-28 13:29S 36°53' E 174°54'0 0.0
2014-Oct-28 12:32S 36°53' E 174°54'0 0.0
2014-Oct-28 11:32S 36°53' E 174°54'0 0.0
2014-Oct-28 10:32S 36°53' E 174°54'0 0.0
2014-Oct-28 09:32S 36°53' E 174°54'0 0.0
2014-Oct-28 08:32S 36°53' E 174°54'0 0.0
2014-Oct-28 07:32S 36°53' E 174°54'0 0.0
2014-Oct-28 06:29S 36°53' E 174°54'2 2.2
2014-Oct-28 05:33S 36°51' E 174°54'3 3.0
2014-Oct-28 04:33S 36°50' E 174°57'4 3.6
2014-Oct-28 03:31S 36°53' E 174°54'0 0.0
2014-Oct-28 00:31S 36°53' E 174°54'0 0.0
2014-Oct-27 23:17S 36°53' E 174°54'0 0.2
2014-Oct-27 22:26S 36°53' E 174°54'0 0.2
2014-Oct-27 21:32S 36°53' E 174°54'0 0.0
2014-Oct-27 20:29S 36°53' E 174°54'6 5.3
2014-Oct-27 19:25S 36°49' E 174°59'4 5.0
2014-Oct-27 18:33S 36°50' E 174°54'2 2.5
2014-Oct-27 17:33S 36°50' E 174°57'3 2.6
2014-Oct-27 16:33S 36°49' E 174°54'4 3.4
2014-Oct-27 15:31S 36°53' E 174°54'0 0.0
2014-Oct-27 14:31S 36°53' E 174°54'0 0.0
2014-Oct-27 13:31S 36°53' E 174°54'0 0.0
2014-Oct-27 12:31S 36°53' E 174°54'0 0.0
2014-Oct-27 11:31S 36°53' E 174°54'0 0.0
2014-Oct-27 10:31S 36°53' E 174°54'0 0.0
2014-Oct-27 09:31S 36°53' E 174°54'0 0.0
2014-Oct-27 08:31S 36°53' E 174°54'4 0.7
2014-Oct-27 03:33S 36°49' E 174°54'4 3.1
2014-Oct-27 02:15S 36°50' E 174°49'5 2.9
2014-Oct-27 00:33S 36°49' E 174°56'5 4.1
2014-Oct-26 23:22S 36°50' E 174°49'10 5.1
2014-Oct-26 21:31S 36°49' E 175°01'13 1.0
2014-Oct-26 08:05S 36°50' E 174°45'7 8.7
2014-Oct-26 07:16S 36°53' E 174°54'0 0.1
2014-Oct-26 06:31S 36°53' E 174°54'4 3.6
2014-Oct-26 05:18S 36°50' E 174°50'3 1.8
2014-Oct-26 03:33S 36°49' E 174°54'3 2.5
2014-Oct-26 02:17S 36°50' E 174°50'4 2.1
2014-Oct-26 00:33S 36°49' E 174°54'7 6.3
2014-Oct-25 23:29S 36°50' E 174°46'12 6.2
2014-Oct-25 21:28S 36°49' E 175°01'13 0.8
2014-Oct-25 05:26S 36°50' E 174°45'7 3.5
2014-Oct-25 03:33S 36°49' E 174°54'6 5.9
2014-Oct-25 02:28S 36°50' E 174°46'7 3.6
2014-Oct-25 00:33S 36°49' E 174°54'7 6.1
2014-Oct-24 23:25S 36°50' E 174°46'13 6.5
2014-Oct-24 21:28S 36°49' E 175°01'13 5.5
2014-Oct-24 19:08S 36°50' E 174°45'0 0.0
2014-Oct-24 09:04S 36°50' E 174°45'1 2.2
2014-Oct-24 08:32S 36°50' E 174°47'1211.2
2014-Oct-24 07:29S 36°49' E 175°01'1310.6
2014-Oct-24 06:16S 36°50' E 174°45'7 9.8
2014-Oct-24 05:32S 36°49' E 174°54'1 1.5
2014-Oct-24 04:33S 36°50' E 174°56'0 0.2
2014-Oct-24 03:29S 36°50' E 174°55'1 0.7
2014-Oct-24 02:33S 36°50' E 174°55'2 1.8
2014-Oct-24 01:33S 36°50' E 174°53'4 3.6
2014-Oct-24 00:33S 36°50' E 174°57'3 3.1
2014-Oct-23 23:33S 36°51' E 174°54'3 3.4
2014-Oct-23 22:33S 36°50' E 174°58'4 4.0
2014-Oct-23 21:28S 36°53' E 174°54'0 0.0
2014-Oct-23 20:27S 36°53' E 174°54'1 1.5
2014-Oct-23 19:33S 36°51' E 174°54'4 4.3
2014-Oct-23 18:33S 36°50' E 174°59'4 4.2
2014-Oct-23 17:33S 36°51' E 174°53'4 4.2
2014-Oct-23 16:33S 36°50' E 174°58'5 3.7
2014-Oct-23 15:16S 36°53' E 174°54'0 0.0
2014-Oct-23 14:28S 36°53' E 174°54'0 0.0
2014-Oct-23 13:31S 36°53' E 174°54'0 0.0
2014-Oct-23 12:32S 36°53' E 174°54'0 0.0
2014-Oct-23 11:31S 36°53' E 174°54'0 0.0
2014-Oct-23 10:32S 36°53' E 174°54'0 0.0
2014-Oct-23 09:32S 36°53' E 174°54'0 0.0
2014-Oct-23 08:30S 36°53' E 174°54'0 0.1
2014-Oct-23 07:33S 36°53' E 174°54'0 0.0
2014-Oct-23 06:30S 36°53' E 174°54'3 3.1
2014-Oct-23 05:27S 36°50' E 174°56'1 1.2
2014-Oct-23 04:33S 36°50' E 174°57'4 3.9
2014-Oct-23 03:33S 36°53' E 174°54'0 0.0
2014-Oct-23 02:30S 36°53' E 174°54'0 0.0
2014-Oct-23 01:33S 36°53' E 174°54'4 2.2
2014-Oct-22 23:33S 36°50' E 174°58'4 2.1
2014-Oct-22 21:29S 36°53' E 174°54'0 0.0
2014-Oct-22 20:32S 36°53' E 174°54'2 1.8
2014-Oct-22 19:33S 36°51' E 174°53'4 4.5
2014-Oct-22 18:33S 36°50' E 174°59'4 4.4
2014-Oct-22 17:33S 36°51' E 174°54'4 4.0
2014-Oct-22 16:33S 36°50' E 174°58'5 4.6
2014-Oct-22 15:32S 36°53' E 174°54'0 0.0
2014-Oct-22 14:29S 36°53' E 174°54'0 0.1
2014-Oct-22 13:31S 36°53' E 174°54'0 0.0
2014-Oct-22 12:05S 36°53' E 174°54'0 0.1
2014-Oct-22 11:28S 36°53' E 174°54'0 0.1
2014-Oct-22 10:31S 36°53' E 174°54'0 0.0
2014-Oct-22 09:29S 36°53' E 174°54'0 0.0
2014-Oct-22 08:29S 36°53' E 174°54'0 0.0
2014-Oct-22 07:32S 36°53' E 174°54'0 0.0
2014-Oct-22 06:32S 36°53' E 174°54'1 1.3
2014-Oct-22 05:33S 36°52' E 174°54'4 4.4
2014-Oct-22 04:33S 36°50' E 174°59'4 4.3
2014-Oct-22 03:32S 36°51' E 174°53'4 3.9
2014-Oct-22 02:33S 36°50' E 174°58'4 4.1
2014-Oct-22 01:28S 36°53' E 174°54'4 2.2
2014-Oct-21 23:33S 36°50' E 174°58'4 4.2
2014-Oct-21 22:33S 36°53' E 174°54'3 1.4
2014-Oct-21 20:33S 36°50' E 174°56'1 0.8
2014-Oct-21 19:24S 36°50' E 174°56'1 0.9
2014-Oct-21 18:33S 36°50' E 174°57'3 2.8
2014-Oct-21 17:32S 36°51' E 174°54'3 2.7
2014-Oct-21 16:33S 36°50' E 174°57'4 3.7
2014-Oct-21 15:31S 36°53' E 174°54'0 0.0
2014-Oct-21 10:33S 36°53' E 174°54'0 0.0
2014-Oct-21 09:33S 36°53' E 174°54'0 0.0
2014-Oct-21 08:33S 36°53' E 174°54'0 0.0
2014-Oct-21 07:33S 36°53' E 174°54'0 0.0
2014-Oct-21 06:33S 36°53' E 174°54'2 1.6
2014-Oct-21 05:33S 36°51' E 174°53'5 4.6
2014-Oct-21 04:33S 36°50' E 174°59'5 4.7
2014-Oct-21 03:28S 36°53' E 174°54'0 0.0
2014-Oct-21 02:28S 36°53' E 174°54'0 0.4
2014-Oct-21 01:16S 36°52' E 174°54'3 1.7
2014-Oct-20 23:33S 36°50' E 174°56'3 2.0
2014-Oct-20 22:13S 36°52' E 174°54'2 1.2
2014-Oct-20 20:30S 36°50' E 174°56'2 1.8
2014-Oct-20 19:33S 36°51' E 174°54'3 3.0
2014-Oct-20 18:33S 36°50' E 174°57'1 0.4
2014-Oct-20 16:33S 36°50' E 174°58'  

Dump ship's entire track history